Terminal Aerodrome Forecast
Issued by NWS

Home | Current Version | Previous Version | Text Only | Print | Product List | Glossary Off
Versions: 1 2 3 4 5 6 7 8 9 10 11 12 13 14 15 16 17 18 19 20 21 22 23 24 25 26 27

000
FTUS43 KBIS 251339 AAE
TAFJMS
TAF AMD
KJMS 251339Z 2514/2612 15008KT 4SM BR OVC004
     FM251600 16014G20KT 4SM BR BKN010
     FM251800 16013KT P6SM FEW150
     FM261000 17005KT P6SM BKN025=

USA.gov is the U.S. government's official web portal to all federal, state and local government web resources and services.